sensor_id;sensor_type;location;lat;lon;timestamp;temperature;humidity
33460;DHT22;19795;53.160;6.612;2023-02-21T05:03:48;9.10;99.90
33460;DHT22;19795;53.160;6.612;2023-02-21T05:11:16;9.10;99.90
33460;DHT22;19795;53.160;6.612;2023-02-21T05:13:42;9.10;99.90
33460;DHT22;19795;53.160;6.612;2023-02-21T05:16:08;9.10;99.90
33460;DHT22;19795;53.160;6.612;2023-02-21T05:18:33;9.10;99.90
33460;DHT22;19795;53.160;6.612;2023-02-21T05:21:02;9.00;99.90
33460;DHT22;19795;53.160;6.612;2023-02-21T05:23:28;9.00;99.90
33460;DHT22;19795;53.160;6.612;2023-02-21T05:26:06;9.00;99.90
33460;DHT22;19795;53.160;6.612;2023-02-21T05:28:32;9.00;99.90
33460;DHT22;19795;53.160;6.612;2023-02-21T05:30:58;9.00;99.90
33460;DHT22;19795;53.160;6.612;2023-02-21T05:33:24;9.00;99.90
33460;DHT22;19795;53.160;6.612;2023-02-21T05:35:50;8.90;99.90
33460;DHT22;19795;53.160;6.612;2023-02-21T05:38:20;8.90;99.90
33460;DHT22;19795;53.160;6.612;2023-02-21T05:40:46;9.00;99.90
33460;DHT22;19795;53.160;6.612;2023-02-21T05:43:12;8.90;99.90
33460;DHT22;19795;53.160;6.612;2023-02-21T05:45:38;9.00;99.90
33460;DHT22;19795;53.160;6.612;2023-02-21T05:48:04;9.00;99.90
33460;DHT22;19795;53.160;6.612;2023-02-21T05:50:30;8.90;99.90
33460;DHT22;19795;53.160;6.612;2023-02-21T05:52:57;8.90;99.90
33460;DHT22;19795;53.160;6.612;2023-02-21T05:55:23;8.90;99.90
33460;DHT22;19795;53.160;6.612;2023-02-21T05:57:49;9.00;99.90
33460;DHT22;19795;53.160;6.612;2023-02-21T06:02:41;9.00;99.90
33460;DHT22;19795;53.160;6.612;2023-02-21T06:05:07;8.90;99.90
33460;DHT22;19795;53.160;6.612;2023-02-21T06:07:33;8.90;99.90
33460;DHT22;19795;53.160;6.612;2023-02-21T06:09:59;8.90;99.90
33460;DHT22;19795;53.160;6.612;2023-02-21T06:12:24;8.90;99.90
33460;DHT22;19795;53.160;6.612;2023-02-21T06:14:50;8.90;99.90
33460;DHT22;19795;53.160;6.612;2023-02-21T06:17:15;8.90;99.90
33460;DHT22;19795;53.160;6.612;2023-02-21T06:19:41;8.90;99.90
33460;DHT22;19795;53.160;6.612;2023-02-21T06:22:07;8.90;99.90
33460;DHT22;19795;53.160;6.612;2023-02-21T06:24:32;8.90;99.90
33460;DHT22;19795;53.160;6.612;2023-02-21T06:26:59;8.90;99.90
33460;DHT22;19795;53.160;6.612;2023-02-21T06:29:25;8.90;99.90
33460;DHT22;19795;53.160;6.612;2023-02-21T06:31:58;8.90;99.90
33460;DHT22;19795;53.160;6.612;2023-02-21T06:34:24;8.90;99.90
33460;DHT22;19795;53.160;6.612;2023-02-21T06:36:54;8.90;99.90
33460;DHT22;19795;53.160;6.612;2023-02-21T06:39:21;8.90;99.90
33460;DHT22;19795;53.160;6.612;2023-02-21T06:41:48;8.90;99.90
33460;DHT22;19795;53.160;6.612;2023-02-21T06:44:14;8.80;99.90
33460;DHT22;19795;53.160;6.612;2023-02-21T06:46:41;8.90;99.90
33460;DHT22;19795;53.160;6.612;2023-02-21T06:49:08;8.80;99.90
33460;DHT22;19795;53.160;6.612;2023-02-21T06:51:39;8.80;99.90
33460;DHT22;19795;53.160;6.612;2023-02-21T06:54:05;8.90;99.90
33460;DHT22;19795;53.160;6.612;2023-02-21T06:56:35;8.90;99.90
33460;DHT22;19795;53.160;6.612;2023-02-21T06:59:01;8.90;99.90
33460;DHT22;19795;53.160;6.612;2023-02-21T07:01:28;8.90;99.90
33460;DHT22;19795;53.160;6.612;2023-02-21T07:03:55;8.80;99.90
33460;DHT22;19795;53.160;6.612;2023-02-21T07:06:21;8.90;99.90
33460;DHT22;19795;53.160;6.612;2023-02-21T07:08:47;8.90;99.90
33460;DHT22;19795;53.160;6.612;2023-02-21T07:11:14;8.90;99.90
33460;DHT22;19795;53.160;6.612;2023-02-21T07:13:40;8.90;99.90
33460;DHT22;19795;53.160;6.612;2023-02-21T07:16:06;8.90;99.90
33460;DHT22;19795;53.160;6.612;2023-02-21T07:18:32;8.90;99.90
33460;DHT22;19795;53.160;6.612;2023-02-21T07:20:58;8.90;99.90
33460;DHT22;19795;53.160;6.612;2023-02-21T07:23:24;8.90;99.90
33460;DHT22;19795;53.160;6.612;2023-02-21T07:25:50;8.90;99.90
33460;DHT22;19795;53.160;6.612;2023-02-21T07:28:16;9.00;99.90
33460;DHT22;19795;53.160;6.612;2023-02-21T07:30:41;9.00;99.90
33460;DHT22;19795;53.160;6.612;2023-02-21T07:33:07;9.00;99.90
33460;DHT22;19795;53.160;6.612;2023-02-21T07:35:33;9.10;99.90
33460;DHT22;19795;53.160;6.612;2023-02-21T07:37:59;9.00;99.90
33460;DHT22;19795;53.160;6.612;2023-02-21T07:40:24;9.00;99.90
33460;DHT22;19795;53.160;6.612;2023-02-21T07:42:50;9.00;99.90
33460;DHT22;19795;53.160;6.612;2023-02-21T07:45:16;9.00;99.90
33460;DHT22;19795;53.160;6.612;2023-02-21T07:47:43;9.00;99.90
33460;DHT22;19795;53.160;6.612;2023-02-21T07:50:10;9.00;99.90
33460;DHT22;19795;53.160;6.612;2023-02-21T07:52:35;9.10;99.90
33460;DHT22;19795;53.160;6.612;2023-02-21T07:55:01;9.10;99.90
33460;DHT22;19795;53.160;6.612;2023-02-21T07:57:27;9.10;99.90
33460;DHT22;19795;53.160;6.612;2023-02-21T07:59:52;9.20;99.90
33460;DHT22;19795;53.160;6.612;2023-02-21T08:02:18;9.20;99.90
33460;DHT22;19795;53.160;6.612;2023-02-21T08:04:44;9.30;99.90
33460;DHT22;19795;53.160;6.612;2023-02-21T08:07:09;9.30;99.90
33460;DHT22;19795;53.160;6.612;2023-02-21T08:09:36;9.30;99.90
33460;DHT22;19795;53.160;6.612;2023-02-21T08:12:03;9.40;99.90
33460;DHT22;19795;53.160;6.612;2023-02-21T08:14:29;9.50;99.90
33460;DHT22;19795;53.160;6.612;2023-02-21T08:16:54;9.50;99.90
33460;DHT22;19795;53.160;6.612;2023-02-21T08:19:20;9.60;99.90
33460;DHT22;19795;53.160;6.612;2023-02-21T08:21:47;9.60;99.90
33460;DHT22;19795;53.160;6.612;2023-02-21T08:24:13;9.60;99.90
33460;DHT22;19795;53.160;6.612;2023-02-21T08:26:39;9.70;99.90
33460;DHT22;19795;53.160;6.612;2023-02-21T08:29:07;9.70;99.90
33460;DHT22;19795;53.160;6.612;2023-02-21T08:31:37;9.70;99.90
33460;DHT22;19795;53.160;6.612;2023-02-21T08:34:04;9.70;99.90
33460;DHT22;19795;53.160;6.612;2023-02-21T08:36:34;9.80;99.90
33460;DHT22;19795;53.160;6.612;2023-02-21T08:39:00;9.90;99.90
33460;DHT22;19795;53.160;6.612;2023-02-21T08:41:41;9.90;99.90
33460;DHT22;19795;53.160;6.612;2023-02-21T08:44:07;9.90;99.90
33460;DHT22;19795;53.160;6.612;2023-02-21T08:46:34;9.90;99.90
33460;DHT22;19795;53.160;6.612;2023-02-21T08:49:00;9.90;99.90
33460;DHT22;19795;53.160;6.612;2023-02-21T08:51:27;9.90;99.90
33460;DHT22;19795;53.160;6.612;2023-02-21T08:53:53;10.00;99.90
33460;DHT22;19795;53.160;6.612;2023-02-21T08:56:20;10.00;99.90
33460;DHT22;19795;53.160;6.612;2023-02-21T08:58:47;10.00;99.90
33460;DHT22;19795;53.160;6.612;2023-02-21T09:01:13;10.00;99.90
33460;DHT22;19795;53.160;6.612;2023-02-21T09:03:38;10.10;99.90
33460;DHT22;19795;53.160;6.612;2023-02-21T09:06:05;10.00;99.90
33460;DHT22;19795;53.160;6.612;2023-02-21T09:08:31;9.90;99.90
33460;DHT22;19795;53.160;6.612;2023-02-21T09:10:56;9.90;99.90
33460;DHT22;19795;53.160;6.612;2023-02-21T09:13:29;10.00;99.90
33460;DHT22;19795;53.160;6.612;2023-02-21T09:15:55;10.00;99.90
33460;DHT22;19795;53.160;6.612;2023-02-21T09:18:22;10.10;99.90
33460;DHT22;19795;53.160;6.612;2023-02-21T09:20:48;10.20;99.90
33460;DHT22;19795;53.160;6.612;2023-02-21T09:23:18;10.20;99.90
33460;DHT22;19795;53.160;6.612;2023-02-21T09:25:45;10.30;99.90
33460;DHT22;19795;53.160;6.612;2023-02-21T09:28:12;10.30;99.90
33460;DHT22;19795;53.160;6.612;2023-02-21T09:30:38;10.30;99.90
33460;DHT22;19795;53.160;6.612;2023-02-21T09:33:03;10.30;99.90
33460;DHT22;19795;53.160;6.612;2023-02-21T09:35:30;10.30;99.90
33460;DHT22;19795;53.160;6.612;2023-02-21T09:37:57;10.30;99.90
33460;DHT22;19795;53.160;6.612;2023-02-21T09:40:44;10.30;99.90
33460;DHT22;19795;53.160;6.612;2023-02-21T09:43:20;10.40;99.90
33460;DHT22;19795;53.160;6.612;2023-02-21T09:45:53;10.50;99.90
33460;DHT22;19795;53.160;6.612;2023-02-21T09:48:21;10.50;99.90
33460;DHT22;19795;53.160;6.612;2023-02-21T09:50:56;10.40;99.90
33460;DHT22;19795;53.160;6.612;2023-02-21T09:53:29;10.40;99.90
33460;DHT22;19795;53.160;6.612;2023-02-21T09:56:20;10.50;99.90
33460;DHT22;19795;53.160;6.612;2023-02-21T09:58:49;10.50;99.90
33460;DHT22;19795;53.160;6.612;2023-02-21T10:01:46;10.50;99.90
33460;DHT22;19795;53.160;6.612;2023-02-21T10:07:13;10.60;99.90
33460;DHT22;19795;53.160;6.612;2023-02-21T10:09:48;10.60;99.90
33460;DHT22;19795;53.160;6.612;2023-02-21T10:12:43;10.60;99.90
33460;DHT22;19795;53.160;6.612;2023-02-21T10:15:26;10.60;99.90
33460;DHT22;19795;53.160;6.612;2023-02-21T10:20:53;10.80;99.90
33460;DHT22;19795;53.160;6.612;2023-02-21T10:23:28;10.80;99.90
33460;DHT22;19795;53.160;6.612;2023-02-21T10:25:58;11.00;99.90
33460;DHT22;19795;53.160;6.612;2023-02-21T10:28:27;10.80;99.90
33460;DHT22;19795;53.160;6.612;2023-02-21T10:31:04;10.80;99.90
33460;DHT22;19795;53.160;6.612;2023-02-21T10:33:34;10.80;99.90
33460;DHT22;19795;53.160;6.612;2023-02-21T10:36:02;10.70;99.90
33460;DHT22;19795;53.160;6.612;2023-02-21T10:38:27;10.80;99.90
33460;DHT22;19795;53.160;6.612;2023-02-21T10:40:54;10.70;99.90
33460;DHT22;19795;53.160;6.612;2023-02-21T10:46:22;10.70;99.90
33460;DHT22;19795;53.160;6.612;2023-02-21T10:48:52;10.70;99.90
33460;DHT22;19795;53.160;6.612;2023-02-21T10:51:33;10.70;99.90
33460;DHT22;19795;53.160;6.612;2023-02-21T10:54:23;10.60;99.90
33460;DHT22;19795;53.160;6.612;2023-02-21T10:56:51;10.70;99.90
33460;DHT22;19795;53.160;6.612;2023-02-21T11:01:47;11.00;99.90
33460;DHT22;19795;53.160;6.612;2023-02-21T11:06:51;11.00;99.90
33460;DHT22;19795;53.160;6.612;2023-02-21T11:09:40;11.00;99.90
33460;DHT22;19795;53.160;6.612;2023-02-21T11:17:29;11.00;99.90
33460;DHT22;19795;53.160;6.612;2023-02-21T11:20:25;11.00;99.90
33460;DHT22;19795;53.160;6.612;2023-02-21T11:22:51;11.10;99.90
33460;DHT22;19795;53.160;6.612;2023-02-21T11:25:27;11.10;99.90
33460;DHT22;19795;53.160;6.612;2023-02-21T11:33:47;11.10;99.90
33460;DHT22;19795;53.160;6.612;2023-02-21T11:36:16;11.20;99.90
33460;DHT22;19795;53.160;6.612;2023-02-21T11:41:35;11.10;99.90
33460;DHT22;19795;53.160;6.612;2023-02-21T11:44:17;11.00;99.90
33460;DHT22;19795;53.160;6.612;2023-02-21T11:46:46;11.20;99.90
33460;DHT22;19795;53.160;6.612;2023-02-21T11:52:09;11.10;99.90
33460;DHT22;19795;53.160;6.612;2023-02-21T11:54:37;11.10;99.90
33460;DHT22;19795;53.160;6.612;2023-02-21T11:59:45;11.30;99.90
33460;DHT22;19795;53.160;6.612;2023-02-21T12:14:06;11.30;99.90
33460;DHT22;19795;53.160;6.612;2023-02-21T12:22:58;11.30;99.90
33460;DHT22;19795;53.160;6.612;2023-02-21T12:27:59;11.30;99.90
33460;DHT22;19795;53.160;6.612;2023-02-21T12:39:34;11.20;99.90
33460;DHT22;19795;53.160;6.612;2023-02-21T12:47:10;11.20;99.90
33460;DHT22;19795;53.160;6.612;2023-02-21T12:49:51;11.30;99.90
33460;DHT22;19795;53.160;6.612;2023-02-21T12:55:23;11.50;99.90
33460;DHT22;19795;53.160;6.612;2023-02-21T12:58:00;11.50;99.90
33460;DHT22;19795;53.160;6.612;2023-02-21T13:01:01;11.50;99.90
33460;DHT22;19795;53.160;6.612;2023-02-21T13:04:31;11.60;99.90
33460;DHT22;19795;53.160;6.612;2023-02-21T13:07:03;11.70;99.90
33460;DHT22;19795;53.160;6.612;2023-02-21T13:09:38;11.70;99.90
33460;DHT22;19795;53.160;6.612;2023-02-21T13:12:13;11.60;99.90
33460;DHT22;19795;53.160;6.612;2023-02-21T13:14:55;11.60;99.90
33460;DHT22;19795;53.160;6.612;2023-02-21T13:17:22;11.70;99.90
33460;DHT22;19795;53.160;6.612;2023-02-21T13:20:05;11.70;99.90
33460;DHT22;19795;53.160;6.612;2023-02-21T13:22:50;11.60;99.90
33460;DHT22;19795;53.160;6.612;2023-02-21T13:28:20;11.60;99.90
33460;DHT22;19795;53.160;6.612;2023-02-21T13:30:51;11.50;99.90
33460;DHT22;19795;53.160;6.612;2023-02-21T13:33:37;11.40;99.90
33460;DHT22;19795;53.160;6.612;2023-02-21T13:38:42;11.20;99.90
33460;DHT22;19795;53.160;6.612;2023-02-21T13:41:11;11.10;99.90
33460;DHT22;19795;53.160;6.612;2023-02-21T13:43:50;11.00;99.90
33460;DHT22;19795;53.160;6.612;2023-02-21T13:57:39;11.10;99.90
33460;DHT22;19795;53.160;6.612;2023-02-21T14:08:48;10.70;99.90
33460;DHT22;19795;53.160;6.612;2023-02-21T14:11:21;10.70;99.90
33460;DHT22;19795;53.160;6.612;2023-02-21T14:14:17;10.60;99.90
33460;DHT22;19795;53.160;6.612;2023-02-21T14:22:13;10.50;99.90
33460;DHT22;19795;53.160;6.612;2023-02-21T14:24:43;10.40;99.90
33460;DHT22;19795;53.160;6.612;2023-02-21T14:29:45;10.40;99.90
33460;DHT22;19795;53.160;6.612;2023-02-21T14:35:37;10.30;99.90
33460;DHT22;19795;53.160;6.612;2023-02-21T14:38:22;10.30;99.90
33460;DHT22;19795;53.160;6.612;2023-02-21T14:47:36;10.40;99.90
33460;DHT22;19795;53.160;6.612;2023-02-21T14:57:50;10.40;99.90
33460;DHT22;19795;53.160;6.612;2023-02-21T15:03:41;10.50;99.90
33460;DHT22;19795;53.160;6.612;2023-02-21T15:06:11;10.40;99.90
33460;DHT22;19795;53.160;6.612;2023-02-21T15:08:52;10.30;99.90
33460;DHT22;19795;53.160;6.612;2023-02-21T15:11:26;10.20;99.90
33460;DHT22;19795;53.160;6.612;2023-02-21T15:14:18;10.20;99.90
33460;DHT22;19795;53.160;6.612;2023-02-21T15:16:59;10.20;99.90
33460;DHT22;19795;53.160;6.612;2023-02-21T15:22:25;10.10;99.90
33460;DHT22;19795;53.160;6.612;2023-02-21T15:25:13;10.10;99.90
33460;DHT22;19795;53.160;6.612;2023-02-21T15:32:57;10.00;99.90
33460;DHT22;19795;53.160;6.612;2023-02-21T15:35:28;9.90;99.90
33460;DHT22;19795;53.160;6.612;2023-02-21T15:37:56;9.90;99.90
33460;DHT22;19795;53.160;6.612;2023-02-21T15:40:24;9.90;99.90
33460;DHT22;19795;53.160;6.612;2023-02-21T15:42:52;9.90;99.90
33460;DHT22;19795;53.160;6.612;2023-02-21T15:45:29;9.90;99.90
33460;DHT22;19795;53.160;6.612;2023-02-21T15:47:57;9.90;99.90
33460;DHT22;19795;53.160;6.612;2023-02-21T15:50:44;9.90;99.90
33460;DHT22;19795;53.160;6.612;2023-02-21T15:53:23;9.80;99.90
33460;DHT22;19795;53.160;6.612;2023-02-21T15:55:51;9.80;99.90
33460;DHT22;19795;53.160;6.612;2023-02-21T15:58:23;9.80;99.90
33460;DHT22;19795;53.160;6.612;2023-02-21T16:01:04;9.70;99.90
33460;DHT22;19795;53.160;6.612;2023-02-21T16:03:38;9.70;99.90
33460;DHT22;19795;53.160;6.612;2023-02-21T16:09:26;9.60;99.90
33460;DHT22;19795;53.160;6.612;2023-02-21T16:15:13;9.60;99.90
33460;DHT22;19795;53.160;6.612;2023-02-21T16:17:44;9.60;99.90
33460;DHT22;19795;53.160;6.612;2023-02-21T16:22:40;9.50;99.90
33460;DHT22;19795;53.160;6.612;2023-02-21T16:25:16;9.50;99.90
33460;DHT22;19795;53.160;6.612;2023-02-21T16:27:49;9.50;99.90
33460;DHT22;19795;53.160;6.612;2023-02-21T16:30:26;9.50;99.90
33460;DHT22;19795;53.160;6.612;2023-02-21T16:32:57;9.50;99.90
33460;DHT22;19795;53.160;6.612;2023-02-21T16:35:24;9.50;99.90
33460;DHT22;19795;53.160;6.612;2023-02-21T16:37:54;9.40;99.90
33460;DHT22;19795;53.160;6.612;2023-02-21T16:40:43;9.40;99.90
33460;DHT22;19795;53.160;6.612;2023-02-21T16:43:19;9.40;99.90
33460;DHT22;19795;53.160;6.612;2023-02-21T16:45:45;9.40;99.90
33460;DHT22;19795;53.160;6.612;2023-02-21T16:48:25;9.30;99.90
33460;DHT22;19795;53.160;6.612;2023-02-21T16:50:54;9.30;99.90
33460;DHT22;19795;53.160;6.612;2023-02-21T16:53:20;9.30;99.90
33460;DHT22;19795;53.160;6.612;2023-02-21T16:55:47;9.20;99.90
33460;DHT22;19795;53.160;6.612;2023-02-21T17:00:51;9.20;99.90
33460;DHT22;19795;53.160;6.612;2023-02-21T17:03:18;9.20;99.90
33460;DHT22;19795;53.160;6.612;2023-02-21T17:05:44;9.20;99.90
33460;DHT22;19795;53.160;6.612;2023-02-21T17:08:10;9.10;99.90
33460;DHT22;19795;53.160;6.612;2023-02-21T17:10:37;9.10;99.90
33460;DHT22;19795;53.160;6.612;2023-02-21T17:13:02;9.10;99.90
33460;DHT22;19795;53.160;6.612;2023-02-21T17:15:29;9.00;99.90
33460;DHT22;19795;53.160;6.612;2023-02-21T17:17:56;9.10;99.90
33460;DHT22;19795;53.160;6.612;2023-02-21T17:20:22;9.00;99.90
33460;DHT22;19795;53.160;6.612;2023-02-21T17:22:49;9.00;99.90
33460;DHT22;19795;53.160;6.612;2023-02-21T17:25:15;9.00;99.90
33460;DHT22;19795;53.160;6.612;2023-02-21T17:27:41;9.00;99.90
33460;DHT22;19795;53.160;6.612;2023-02-21T17:30:08;9.00;99.90
33460;DHT22;19795;53.160;6.612;2023-02-21T17:32:34;9.00;99.90
33460;DHT22;19795;53.160;6.612;2023-02-21T17:35:00;9.00;99.90
33460;DHT22;19795;53.160;6.612;2023-02-21T17:37:25;9.00;99.90
33460;DHT22;19795;53.160;6.612;2023-02-21T17:39:52;9.00;99.90
33460;DHT22;19795;53.160;6.612;2023-02-21T17:42:26;9.00;99.90
33460;DHT22;19795;53.160;6.612;2023-02-21T17:44:52;9.00;99.90
33460;DHT22;19795;53.160;6.612;2023-02-21T17:47:20;8.90;99.90
33460;DHT22;19795;53.160;6.612;2023-02-21T17:49:47;9.00;99.90
33460;DHT22;19795;53.160;6.612;2023-02-21T17:52:13;8.90;99.90
33460;DHT22;19795;53.160;6.612;2023-02-21T17:54:40;8.90;99.90
33460;DHT22;19795;53.160;6.612;2023-02-21T17:57:06;8.90;99.90
33460;DHT22;19795;53.160;6.612;2023-02-21T17:59:36;8.90;99.90
33460;DHT22;19795;53.160;6.612;2023-02-21T18:02:03;8.90;99.90
33460;DHT22;19795;53.160;6.612;2023-02-21T18:04:29;8.90;99.90
33460;DHT22;19795;53.160;6.612;2023-02-21T18:06:55;8.80;99.90
33460;DHT22;19795;53.160;6.612;2023-02-21T18:09:21;8.90;99.90
33460;DHT22;19795;53.160;6.612;2023-02-21T18:11:52;8.90;99.90
33460;DHT22;19795;53.160;6.612;2023-02-21T18:14:20;8.90;99.90
33460;DHT22;19795;53.160;6.612;2023-02-21T18:16:46;8.80;99.90
33460;DHT22;19795;53.160;6.612;2023-02-21T18:19:12;8.80;99.90
33460;DHT22;19795;53.160;6.612;2023-02-21T18:21:38;8.80;99.90
33460;DHT22;19795;53.160;6.612;2023-02-21T18:24:07;8.80;99.90
33460;DHT22;19795;53.160;6.612;2023-02-21T18:26:32;8.80;99.90
33460;DHT22;19795;53.160;6.612;2023-02-21T18:28:58;8.80;99.90
33460;DHT22;19795;53.160;6.612;2023-02-21T18:31:24;8.70;99.90
33460;DHT22;19795;53.160;6.612;2023-02-21T18:33:49;8.80;99.90
33460;DHT22;19795;53.160;6.612;2023-02-21T18:36:16;8.70;99.90
33460;DHT22;19795;53.160;6.612;2023-02-21T18:38:41;8.80;99.90
33460;DHT22;19795;53.160;6.612;2023-02-21T18:41:15;8.70;99.90
33460;DHT22;19795;53.160;6.612;2023-02-21T18:43:41;8.60;99.90
33460;DHT22;19795;53.160;6.612;2023-02-21T18:46:09;8.60;99.90
33460;DHT22;19795;53.160;6.612;2023-02-21T18:48:36;8.60;99.90
33460;DHT22;19795;53.160;6.612;2023-02-21T18:51:02;8.60;99.90
33460;DHT22;19795;53.160;6.612;2023-02-21T18:53:28;8.60;99.90
33460;DHT22;19795;53.160;6.612;2023-02-21T18:55:54;8.70;99.90
33460;DHT22;19795;53.160;6.612;2023-02-21T18:58:21;8.60;99.90
33460;DHT22;19795;53.160;6.612;2023-02-21T19:00:47;8.60;99.90
33460;DHT22;19795;53.160;6.612;2023-02-21T19:03:16;8.60;99.90
33460;DHT22;19795;53.160;6.612;2023-02-21T19:05:41;8.60;99.90
33460;DHT22;19795;53.160;6.612;2023-02-21T19:08:07;8.60;99.90
33460;DHT22;19795;53.160;6.612;2023-02-21T19:10:33;8.60;99.90
33460;DHT22;19795;53.160;6.612;2023-02-21T19:12:58;8.60;99.90
33460;DHT22;19795;53.160;6.612;2023-02-21T19:15:27;8.60;99.90
33460;DHT22;19795;53.160;6.612;2023-02-21T19:17:53;8.60;99.90
33460;DHT22;19795;53.160;6.612;2023-02-21T19:20:19;8.60;99.90
33460;DHT22;19795;53.160;6.612;2023-02-21T19:22:45;8.60;99.90
33460;DHT22;19795;53.160;6.612;2023-02-21T19:25:11;8.60;99.90
33460;DHT22;19795;53.160;6.612;2023-02-21T19:27:37;8.60;99.90
33460;DHT22;19795;53.160;6.612;2023-02-21T19:30:03;8.50;99.90
33460;DHT22;19795;53.160;6.612;2023-02-21T19:32:29;8.50;99.90
33460;DHT22;19795;53.160;6.612;2023-02-21T19:34:56;8.50;99.90
33460;DHT22;19795;53.160;6.612;2023-02-21T19:37:22;8.50;99.90
33460;DHT22;19795;53.160;6.612;2023-02-21T19:39:48;8.50;99.90
33460;DHT22;19795;53.160;6.612;2023-02-21T19:42:14;8.50;99.90
33460;DHT22;19795;53.160;6.612;2023-02-21T19:44:39;8.50;99.90
33460;DHT22;19795;53.160;6.612;2023-02-21T19:47:05;8.50;99.90
33460;DHT22;19795;53.160;6.612;2023-02-21T19:49:31;8.50;99.90
33460;DHT22;19795;53.160;6.612;2023-02-21T19:51:57;8.50;99.90
33460;DHT22;19795;53.160;6.612;2023-02-21T19:54:24;8.60;99.90
33460;DHT22;19795;53.160;6.612;2023-02-21T19:56:51;8.50;99.90
33460;DHT22;19795;53.160;6.612;2023-02-21T19:59:17;8.50;99.90
33460;DHT22;19795;53.160;6.612;2023-02-21T20:01:43;8.50;99.90
33460;DHT22;19795;53.160;6.612;2023-02-21T20:04:09;8.50;99.90
33460;DHT22;19795;53.160;6.612;2023-02-21T20:06:35;8.50;99.90
33460;DHT22;19795;53.160;6.612;2023-02-21T20:09:06;8.50;99.90
33460;DHT22;19795;53.160;6.612;2023-02-21T20:11:32;8.50;99.90
33460;DHT22;19795;53.160;6.612;2023-02-21T20:13:58;8.50;99.90
33460;DHT22;19795;53.160;6.612;2023-02-21T20:16:24;8.50;99.90
33460;DHT22;19795;53.160;6.612;2023-02-21T20:18:52;8.40;99.90
33460;DHT22;19795;53.160;6.612;2023-02-21T20:21:24;8.50;99.90
33460;DHT22;19795;53.160;6.612;2023-02-21T20:23:52;8.40;99.90
33460;DHT22;19795;53.160;6.612;2023-02-21T20:26:17;8.50;99.90
33460;DHT22;19795;53.160;6.612;2023-02-21T20:28:46;8.50;99.90
33460;DHT22;19795;53.160;6.612;2023-02-21T20:31:12;8.50;99.90
33460;DHT22;19795;53.160;6.612;2023-02-21T20:33:38;8.40;99.90
33460;DHT22;19795;53.160;6.612;2023-02-21T20:36:04;8.50;99.90
33460;DHT22;19795;53.160;6.612;2023-02-21T20:38:30;8.40;99.90
33460;DHT22;19795;53.160;6.612;2023-02-21T20:40:57;8.40;99.90
33460;DHT22;19795;53.160;6.612;2023-02-21T20:43:23;8.50;99.90
33460;DHT22;19795;53.160;6.612;2023-02-21T20:45:50;8.50;99.90
33460;DHT22;19795;53.160;6.612;2023-02-21T20:48:16;8.40;99.90
33460;DHT22;19795;53.160;6.612;2023-02-21T20:50:43;8.40;99.90
33460;DHT22;19795;53.160;6.612;2023-02-21T20:53:10;8.40;99.90
33460;DHT22;19795;53.160;6.612;2023-02-21T20:55:36;8.50;99.90
33460;DHT22;19795;53.160;6.612;2023-02-21T20:58:03;8.40;99.90
33460;DHT22;19795;53.160;6.612;2023-02-21T21:00:32;8.40;99.90
33460;DHT22;19795;53.160;6.612;2023-02-21T21:03:04;8.40;99.90
33460;DHT22;19795;53.160;6.612;2023-02-21T21:05:31;8.30;99.90
33460;DHT22;19795;53.160;6.612;2023-02-21T21:07:57;8.40;99.90
33460;DHT22;19795;53.160;6.612;2023-02-21T21:10:23;8.30;99.90
33460;DHT22;19795;53.160;6.612;2023-02-21T21:12:49;8.30;99.90
33460;DHT22;19795;53.160;6.612;2023-02-21T21:15:16;8.30;99.90
33460;DHT22;19795;53.160;6.612;2023-02-21T21:17:42;8.40;99.90
33460;DHT22;19795;53.160;6.612;2023-02-21T21:20:09;8.40;99.90
33460;DHT22;19795;53.160;6.612;2023-02-21T21:22:39;8.40;99.90
33460;DHT22;19795;53.160;6.612;2023-02-21T21:25:05;8.40;99.90
33460;DHT22;19795;53.160;6.612;2023-02-21T21:27:33;8.40;99.90
33460;DHT22;19795;53.160;6.612;2023-02-21T21:29:59;8.40;99.90
33460;DHT22;19795;53.160;6.612;2023-02-21T21:32:26;8.30;99.90
33460;DHT22;19795;53.160;6.612;2023-02-21T21:34:54;8.40;99.90
33460;DHT22;19795;53.160;6.612;2023-02-21T21:37:25;8.40;99.90
33460;DHT22;19795;53.160;6.612;2023-02-21T21:39:53;8.40;99.90
33460;DHT22;19795;53.160;6.612;2023-02-21T21:42:26;8.40;99.90
33460;DHT22;19795;53.160;6.612;2023-02-21T21:44:53;8.40;99.90
33460;DHT22;19795;53.160;6.612;2023-02-21T21:47:28;8.40;99.90
33460;DHT22;19795;53.160;6.612;2023-02-21T21:49:56;8.40;99.90
33460;DHT22;19795;53.160;6.612;2023-02-21T21:52:22;8.40;99.90
33460;DHT22;19795;53.160;6.612;2023-02-21T21:54:50;8.40;99.90
33460;DHT22;19795;53.160;6.612;2023-02-21T21:57:17;8.50;99.90
33460;DHT22;19795;53.160;6.612;2023-02-21T21:59:43;8.40;99.90
33460;DHT22;19795;53.160;6.612;2023-02-21T22:02:10;8.40;99.90
33460;DHT22;19795;53.160;6.612;2023-02-21T22:04:37;8.40;99.90
33460;DHT22;19795;53.160;6.612;2023-02-21T22:07:05;8.40;99.90
33460;DHT22;19795;53.160;6.612;2023-02-21T22:09:31;8.50;99.90
33460;DHT22;19795;53.160;6.612;2023-02-21T22:11:57;8.40;99.90
33460;DHT22;19795;53.160;6.612;2023-02-21T22:14:23;8.40;99.90
33460;DHT22;19795;53.160;6.612;2023-02-21T22:16:51;8.40;99.90
33460;DHT22;19795;53.160;6.612;2023-02-21T22:19:19;8.40;99.90
33460;DHT22;19795;53.160;6.612;2023-02-21T22:21:46;8.30;99.90
33460;DHT22;19795;53.160;6.612;2023-02-21T22:24:13;8.30;99.90
33460;DHT22;19795;53.160;6.612;2023-02-21T22:26:41;8.30;99.90
33460;DHT22;19795;53.160;6.612;2023-02-21T22:29:10;8.30;99.90
33460;DHT22;19795;53.160;6.612;2023-02-21T22:31:36;8.30;99.90
33460;DHT22;19795;53.160;6.612;2023-02-21T22:34:02;8.30;99.90
33460;DHT22;19795;53.160;6.612;2023-02-21T22:36:29;8.30;99.90
33460;DHT22;19795;53.160;6.612;2023-02-21T22:39:03;8.30;99.90
33460;DHT22;19795;53.160;6.612;2023-02-21T22:41:35;8.40;99.90
33460;DHT22;19795;53.160;6.612;2023-02-21T22:44:01;8.30;99.90
33460;DHT22;19795;53.160;6.612;2023-02-21T22:46:36;8.30;99.90
33460;DHT22;19795;53.160;6.612;2023-02-21T22:49:02;8.30;99.90
33460;DHT22;19795;53.160;6.612;2023-02-21T22:51:28;8.40;99.90
33460;DHT22;19795;53.160;6.612;2023-02-21T22:53:54;8.30;99.90
33460;DHT22;19795;53.160;6.612;2023-02-21T22:56:22;8.30;99.90
33460;DHT22;19795;53.160;6.612;2023-02-21T22:58:50;8.30;99.90
33460;DHT22;19795;53.160;6.612;2023-02-21T23:01:15;8.30;99.90
33460;DHT22;19795;53.160;6.612;2023-02-21T23:03:46;8.30;99.90
